Aviation Digital Data Service (ADDS)

Output produced by METARs form (1715 UTC 21 December 2014)
found at http://aviationweather.gov/adds/metars/
 
KFAY 211123Z 2112/2212 02004KT 6SM BR OVC028 
     TEMPO 2112/2114 3SM BR OVC035 
     FM211400 04004KT P6SM BKN040 
     FM212100 06007KT P6SM OVC060 
     FM220100 06008KT 6SM -RA BR SCT020 OVC050 
     FM220500 03009KT 3SM -RA BR OVC006